Time;durP1;ratioP1;P1;durP2;ratioP2;P2;SDS_P1;SDS_P2;PMS_P1;PMS_P2;Temp;Humidity;BMP_temperature;BMP_pressure;BME280_temperature;BME280_humidity;BME280_pressure;Samples;Min_cycle;Max_cycle;Signal;HPM_P1;HPM_P2
2022/07/08 00:01:33;;;;;;;13.60;3.23;;;16.70;99.90;;;;;;5033916;28;20950;-47
2022/07/08 00:04:00;;;;;;;9.77;3.13;;;16.70;99.90;;;;;;5034039;28;20465;-47
2022/07/08 00:06:26;;;;;;;10.27;3.30;;;16.50;99.90;;;;;;5033653;28;20432;-47
2022/07/08 00:08:55;;;;;;;13.60;4.10;;;16.70;99.90;;;;;;5031990;28;20434;-47
2022/07/08 00:11:21;;;;;;;17.00;4.23;;;16.70;99.90;;;;;;5033762;28;20490;-47
2022/07/08 00:13:48;;;;;;;15.63;3.47;;;16.80;99.90;;;;;;5033888;28;20417;-47
2022/07/08 00:16:15;;;;;;;12.70;4.50;;;16.60;99.90;;;;;;5033704;28;20492;-47
2022/07/08 00:18:41;;;;;;;10.97;4.07;;;16.50;99.90;;;;;;5031931;28;20471;-47
2022/07/08 00:21:08;;;;;;;12.77;4.07;;;16.50;99.90;;;;;;5033926;28;20449;-47
2022/07/08 00:23:35;;;;;;;19.30;4.53;;;16.40;99.90;;;;;;5033523;28;20411;-47
2022/07/08 00:26:03;;;;;;;15.20;3.30;;;16.50;99.90;;;;;;5033301;28;20432;-46
2022/07/08 00:28:29;;;;;;;9.57;3.10;;;16.50;99.90;;;;;;5032800;28;20977;-47
2022/07/08 00:30:56;;;;;;;18.03;5.00;;;16.40;99.90;;;;;;5033359;28;20893;-47
2022/07/08 00:33:22;;;;;;;14.40;4.03;;;16.40;99.90;;;;;;5033157;28;20489;-47
2022/07/08 00:35:49;;;;;;;10.30;3.70;;;16.40;99.90;;;;;;5033197;28;20551;-47
2022/07/08 00:38:15;;;;;;;8.97;3.23;;;16.10;99.90;;;;;;5068686;23;20939;-51
2022/07/08 00:40:42;;;;;;;14.90;4.07;;;16.30;99.90;;;;;;5094178;28;20437;-50
2022/07/08 00:43:24;;;;;;;15.17;4.33;;;16.20;99.90;;;;;;5076105;28;20445;-50
2022/07/08 00:45:51;;;;;;;19.20;4.00;;;16.30;99.90;;;;;;5094659;28;20415;-50
2022/07/08 00:48:17;;;;;;;13.00;3.73;;;16.30;99.90;;;;;;5094033;28;20500;-50
2022/07/08 00:50:44;;;;;;;17.50;4.50;;;16.20;99.90;;;;;;5093452;28;20494;-50
2022/07/08 00:53:11;;;;;;;12.03;3.80;;;16.20;99.90;;;;;;5093893;28;21009;-50
2022/07/08 00:55:38;;;;;;;15.93;3.90;;;16.20;99.90;;;;;;5093880;28;20476;-50
2022/07/08 00:58:05;;;;;;;16.37;6.00;;;16.10;99.90;;;;;;5093871;28;20456;-51
2022/07/08 01:00:32;;;;;;;14.03;4.30;;;16.10;99.90;;;;;;5093628;28;20433;-50
2022/07/08 01:02:59;;;;;;;11.43;3.30;;;16.20;99.90;;;;;;5075954;28;20449;-50
2022/07/08 01:05:26;;;;;;;18.00;4.30;;;16.10;99.90;;;;;;5093638;28;20449;-50
2022/07/08 01:07:52;;;;;;;17.53;3.70;;;16.30;99.90;;;;;;5093714;28;20436;-50
2022/07/08 01:10:19;;;;;;;15.50;4.47;;;16.00;99.90;;;;;;5093435;28;20442;-50
2022/07/08 01:12:46;;;;;;;14.03;4.33;;;16.10;99.90;;;;;;5093796;28;20429;-50
2022/07/08 01:15:13;;;;;;;13.47;3.87;;;15.80;99.90;;;;;;5093567;28;20476;-51
2022/07/08 01:17:45;;;;;;;15.50;4.57;;;16.20;99.90;;;;;;5093670;28;20429;-50
2022/07/08 01:20:13;;;;;;;12.20;4.03;;;16.00;99.90;;;;;;5093302;28;20407;-48
2022/07/08 01:22:41;;;;;;;22.43;4.90;;;15.90;99.90;;;;;;5093929;28;20435;-48
2022/07/08 01:25:09;;;;;;;18.43;4.50;;;15.80;99.90;;;;;;5093462;28;20972;-48
2022/07/08 01:27:36;;;;;;;14.13;4.23;;;16.00;99.90;;;;;;5093630;28;20437;-48
2022/07/08 01:30:04;;;;;;;14.93;4.83;;;15.80;99.90;;;;;;5092835;28;21037;-51
2022/07/08 01:32:32;;;;;;;17.90;4.50;;;15.90;99.90;;;;;;5093347;28;20440;-48
2022/07/08 01:34:59;;;;;;;17.63;5.03;;;15.90;99.90;;;;;;5093211;28;20428;-49
2022/07/08 01:37:26;;;;;;;14.20;3.80;;;15.90;99.90;;;;;;5093479;28;20440;-51
2022/07/08 01:39:54;;;;;;;13.53;3.97;;;15.80;99.90;;;;;;5092942;28;20472;-49
2022/07/08 01:42:21;;;;;;;13.07;3.80;;;15.50;99.90;;;;;;5093408;28;20483;-48
2022/07/08 01:44:47;;;;;;;15.90;4.00;;;16.00;99.90;;;;;;5075288;28;20483;-48
2022/07/08 01:47:14;;;;;;;21.00;4.00;;;16.20;99.90;;;;;;5093090;28;20425;-48
2022/07/08 01:49:40;;;;;;;18.80;4.60;;;16.30;99.90;;;;;;5074484;28;20782;-48
2022/07/08 01:52:08;;;;;;;14.23;3.97;;;16.20;99.90;;;;;;5093117;28;20478;-48
2022/07/08 01:54:35;;;;;;;16.87;5.10;;;16.20;99.90;;;;;;5093326;28;20441;-49
2022/07/08 01:57:15;;;;;;;19.53;4.80;;;16.40;99.90;;;;;;5092787;28;20476;-48
2022/07/08 01:59:55;;;;;;;21.03;4.97;;;16.30;99.90;;;;;;5092360;28;20448;-48
2022/07/08 02:02:22;;;;;;;19.53;4.47;;;16.60;99.90;;;;;;5092635;28;20444;-51
2022/07/08 02:04:50;;;;;;;17.90;4.73;;;16.30;99.90;;;;;;5092393;28;20437;-48
2022/07/08 02:07:16;;;;;;;11.23;3.40;;;16.20;99.90;;;;;;5074476;28;20956;-48
2022/07/08 02:10:07;;;;;;;16.20;5.03;;;16.20;99.90;;;;;;5092373;28;20446;-47
2022/07/08 02:12:34;;;;;;;12.17;3.60;;;16.10;99.90;;;;;;5092784;28;20429;-48
2022/07/08 02:15:03;;;;;;;19.47;4.30;;;16.10;99.90;;;;;;5092436;28;20436;-49
2022/07/08 02:17:32;;;;;;;16.77;4.73;;;16.20;99.90;;;;;;5092843;28;20480;-48
2022/07/08 02:19:59;;;;;;;13.43;4.57;;;16.40;99.90;;;;;;5091961;28;20456;-48
2022/07/08 02:22:26;;;;;;;17.00;4.67;;;16.30;99.90;;;;;;5092274;28;20949;-48
2022/07/08 02:24:53;;;;;;;17.17;4.30;;;16.20;99.90;;;;;;5092395;28;20487;-49
2022/07/08 02:27:20;;;;;;;12.33;3.70;;;16.20;99.90;;;;;;5074031;28;20456;-49
2022/07/08 02:29:48;;;;;;;13.67;4.00;;;16.20;99.90;;;;;;5091959;28;21002;-49
2022/07/08 02:32:15;;;;;;;15.70;4.93;;;16.10;99.90;;;;;;5092011;28;20943;-49
2022/07/08 02:34:42;;;;;;;20.30;4.50;;;16.10;99.90;;;;;;5092187;28;20539;-49
2022/07/08 02:37:13;;;;;;;22.30;10.00;;;16.10;99.90;;;;;;5091999;28;20484;-49
2022/07/08 02:39:40;;;;;;;13.90;4.17;;;16.10;99.90;;;;;;5091651;28;20466;-50
2022/07/08 02:42:08;;;;;;;18.80;5.67;;;16.00;99.90;;;;;;5091998;28;20441;-49
2022/07/08 02:44:35;;;;;;;14.07;3.90;;;16.20;99.90;;;;;;5092050;28;20531;-49
2022/07/08 02:47:04;;;;;;;19.97;5.17;;;16.20;99.90;;;;;;5091978;28;20517;-49
2022/07/08 02:49:30;;;;;;;10.03;4.30;;;16.40;99.90;;;;;;5091409;28;20793;-49
2022/07/08 02:51:57;;;;;;;21.63;3.70;;;16.30;99.90;;;;;;5092024;28;20429;-49
2022/07/08 02:54:23;;;;;;;11.83;4.33;;;16.30;99.90;;;;;;5091900;28;20428;-49
2022/07/08 02:56:50;;;;;;;21.27;4.47;;;16.30;99.90;;;;;;5091784;28;20491;-49
2022/07/08 02:59:17;;;;;;;16.20;4.33;;;16.30;99.90;;;;;;5073263;28;20476;-49
2022/07/08 03:01:43;;;;;;;20.67;5.40;;;16.00;99.90;;;;;;5091735;28;20433;-49
2022/07/08 03:04:11;;;;;;;24.27;4.87;;;16.20;99.90;;;;;;5091539;28;20433;-49
2022/07/08 03:06:38;;;;;;;14.03;5.07;;;16.20;99.90;;;;;;5091761;28;20429;-50
2022/07/08 03:09:04;;;;;;;13.33;4.20;;;16.00;99.90;;;;;;5091166;28;20441;-49
2022/07/08 03:11:31;;;;;;;16.57;4.80;;;16.20;99.90;;;;;;5091680;28;20440;-49
2022/07/08 03:13:57;;;;;;;10.83;3.97;;;15.70;99.90;;;;;;5091434;28;20434;-49
2022/07/08 03:16:24;;;;;;;18.07;3.77;;;16.10;99.90;;;;;;5094515;28;20480;-50
2022/07/08 03:18:51;;;;;;;19.07;4.30;;;16.20;99.90;;;;;;5095164;28;20991;-49
2022/07/08 03:21:19;;;;;;;17.47;4.00;;;16.20;99.90;;;;;;5077608;28;20473;-49
2022/07/08 03:23:45;;;;;;;13.77;4.33;;;16.10;99.90;;;;;;5095681;28;20495;-49
2022/07/08 03:26:12;;;;;;;17.80;4.10;;;16.30;99.90;;;;;;5096060;28;20482;-50
2022/07/08 03:28:38;;;;;;;15.50;4.93;;;16.20;99.90;;;;;;5095950;28;20953;-49
2022/07/08 03:31:05;;;;;;;19.93;5.50;;;16.20;99.90;;;;;;5095886;28;20435;-49
2022/07/08 03:33:32;;;;;;;10.77;3.57;;;16.30;99.90;;;;;;5077580;28;20483;-49
2022/07/08 03:35:58;;;;;;;11.80;3.63;;;16.30;99.90;;;;;;5095620;28;20464;-49
2022/07/08 03:38:27;;;;;;;15.80;4.00;;;16.30;99.90;;;;;;5077003;28;20845;-49
2022/07/08 03:43:38;;;;;;;13.13;4.00;;;16.30;99.90;;;;;;5095267;28;20466;-49
2022/07/08 03:46:04;;;;;;;19.13;5.20;;;16.40;99.90;;;;;;5095196;28;20439;-50
2022/07/08 03:48:31;;;;;;;15.10;4.67;;;16.50;99.90;;;;;;5094867;28;20814;-50
2022/07/08 03:50:58;;;;;;;13.33;4.23;;;16.10;99.90;;;;;;5095158;28;20502;-50
2022/07/08 03:53:24;;;;;;;18.43;5.77;;;16.50;99.90;;;;;;5095132;28;20432;-50
2022/07/08 03:55:54;;;;;;;18.27;6.13;;;16.50;99.90;;;;;;5094994;28;20544;-50
2022/07/08 03:58:20;;;;;;;14.53;4.67;;;16.50;99.90;;;;;;5094920;28;20459;-50
2022/07/08 04:00:47;;;;;;;13.77;4.57;;;16.50;99.90;;;;;;5094660;28;20436;-50
2022/07/08 04:03:13;;;;;;;17.60;4.90;;;16.60;99.90;;;;;;5094823;28;20436;-50
2022/07/08 04:05:40;;;;;;;21.83;5.70;;;16.60;99.90;;;;;;5095167;28;20433;-50
2022/07/08 04:08:07;;;;;;;15.60;4.60;;;16.60;99.90;;;;;;5094473;28;20925;-50
2022/07/08 04:10:33;;;;;;;12.10;4.30;;;16.60;99.90;;;;;;5094352;28;20510;-50
2022/07/08 04:13:01;;;;;;;16.67;5.17;;;16.80;99.90;;;;;;5094834;28;20948;-50
2022/07/08 04:15:28;;;;;;;12.00;3.90;;;16.60;99.90;;;;;;5094648;28;20447;-50
2022/07/08 04:17:54;;;;;;;10.73;3.67;;;16.60;99.90;;;;;;5094354;28;20546;-50
2022/07/08 04:20:21;;;;;;;11.37;3.23;;;16.70;99.90;;;;;;5094312;28;20939;-49
2022/07/08 04:22:48;;;;;;;14.17;5.20;;;16.70;99.90;;;;;;5076392;28;20440;-50
2022/07/08 04:25:14;;;;;;;16.67;4.23;;;16.80;99.90;;;;;;5094452;28;20944;-50
2022/07/08 04:27:41;;;;;;;10.40;4.07;;;16.90;99.90;;;;;;5093628;28;20437;-50
2022/07/08 04:30:10;;;;;;;13.10;3.80;;;16.80;99.90;;;;;;5093977;28;20452;-50
2022/07/08 04:32:36;;;;;;;10.70;4.73;;;17.10;99.90;;;;;;5094607;28;21005;-49
2022/07/08 04:35:03;;;;;;;16.83;4.87;;;16.90;99.90;;;;;;5076154;28;20441;-49
2022/07/08 04:37:30;;;;;;;11.70;4.10;;;17.00;99.90;;;;;;5094060;28;20472;-49
2022/07/08 04:39:56;;;;;;;13.30;3.77;;;17.10;99.90;;;;;;5093746;28;20464;-49
2022/07/08 04:42:23;;;;;;;15.80;4.53;;;17.20;99.90;;;;;;5094304;28;20438;-49
2022/07/08 04:44:50;;;;;;;8.67;3.57;;;17.20;99.90;;;;;;5094234;28;20760;-50
2022/07/08 04:47:18;;;;;;;11.23;4.67;;;17.30;99.90;;;;;;5093857;28;20438;-50
2022/07/08 04:49:45;;;;;;;8.10;3.20;;;17.20;99.90;;;;;;5075311;28;20489;-49
2022/07/08 04:52:11;;;;;;;15.07;4.80;;;17.30;99.90;;;;;;5093779;28;20441;-49
2022/07/08 04:54:41;;;;;;;14.87;4.17;;;17.40;99.90;;;;;;5093953;28;20429;-49
2022/07/08 04:57:08;;;;;;;14.90;3.97;;;17.40;99.90;;;;;;5093857;28;20569;-49
2022/07/08 04:59:35;;;;;;;8.00;2.63;;;17.40;99.90;;;;;;5075017;28;20468;-49
2022/07/08 05:02:02;;;;;;;8.40;3.57;;;17.40;99.90;;;;;;5093817;28;20430;-49
2022/07/08 05:04:33;;;;;;;10.80;3.00;;;17.40;99.90;;;;;;5093727;28;20430;-49
2022/07/08 05:07:00;;;;;;;12.63;4.30;;;17.60;99.90;;;;;;5093558;28;20496;-50
2022/07/08 05:09:26;;;;;;;12.80;4.67;;;17.10;99.90;;;;;;5093391;28;20454;-49
2022/07/08 05:11:53;;;;;;;8.30;3.43;;;17.60;99.90;;;;;;5093415;28;20434;-49
2022/07/08 05:14:20;;;;;;;13.70;3.07;;;17.80;99.90;;;;;;5093461;28;20436;-49
2022/07/08 05:16:46;;;;;;;8.87;3.47;;;17.60;99.90;;;;;;5093294;28;21005;-49
2022/07/08 05:19:16;;;;;;;12.63;3.47;;;17.70;99.90;;;;;;5074588;28;20472;-49
2022/07/08 05:22:01;;;;;;;13.50;4.50;;;17.40;99.90;;;;;;5093174;28;20415;-49
2022/07/08 05:24:28;;;;;;;10.80;3.97;;;17.80;99.90;;;;;;5093272;28;20838;-49
2022/07/08 05:27:02;;;;;;;10.63;3.40;;;17.90;99.90;;;;;;5093224;28;20430;-49
2022/07/08 05:29:29;;;;;;;9.40;3.20;;;17.80;99.90;;;;;;5092553;28;20453;-49
2022/07/08 05:31:56;;;;;;;7.23;3.00;;;17.80;99.90;;;;;;5074646;28;20455;-49
2022/07/08 05:34:22;;;;;;;9.70;3.87;;;17.80;99.90;;;;;;5092915;28;20510;-49
2022/07/08 05:36:49;;;;;;;17.40;3.93;;;17.60;99.90;;;;;;5092931;28;20480;-49
2022/07/08 05:39:17;;;;;;;14.27;3.93;;;17.80;99.90;;;;;;5091478;28;20973;-49
2022/07/08 05:41:44;;;;;;;11.37;3.63;;;18.00;99.90;;;;;;5092824;28;20435;-49
2022/07/08 05:44:11;;;;;;;11.13;3.90;;;17.80;99.90;;;;;;5092814;28;20441;-49
2022/07/08 05:46:37;;;;;;;10.80;3.70;;;17.80;99.90;;;;;;5092646;28;20430;-49
2022/07/08 05:49:04;;;;;;;7.93;3.10;;;17.70;99.90;;;;;;5092208;28;20473;-49
2022/07/08 05:51:31;;;;;;;10.80;3.57;;;17.50;99.90;;;;;;5092521;28;20441;-49
2022/07/08 05:53:57;;;;;;;16.10;4.07;;;17.70;99.90;;;;;;5092455;28;20430;-49
2022/07/08 05:56:25;;;;;;;8.27;2.97;;;17.70;99.90;;;;;;5092272;28;20433;-50
2022/07/08 05:58:52;;;;;;;8.03;3.20;;;17.60;99.90;;;;;;5092348;28;20457;-50
2022/07/08 06:01:18;;;;;;;11.60;4.10;;;17.60;99.90;;;;;;5074299;28;20445;-49
2022/07/08 06:03:45;;;;;;;8.53;3.10;;;17.60;99.90;;;;;;5092241;28;20469;-51
2022/07/08 06:06:11;;;;;;;10.00;4.10;;;17.60;99.90;;;;;;5092387;28;20437;-50
2022/07/08 06:08:38;;;;;;;11.97;3.47;;;17.50;99.90;;;;;;5091686;28;20442;-50
2022/07/08 06:11:05;;;;;;;7.70;2.93;;;17.70;99.90;;;;;;5092124;28;20441;-50
2022/07/08 06:13:33;;;;;;;10.57;3.50;;;17.60;99.90;;;;;;5092843;28;20746;-50
2022/07/08 06:15:59;;;;;;;11.10;3.57;;;17.60;99.90;;;;;;5091853;28;20437;-50
2022/07/08 06:18:26;;;;;;;7.80;3.57;;;17.90;99.90;;;;;;5091302;28;20509;-50
2022/07/08 06:20:53;;;;;;;10.87;3.10;;;17.70;99.90;;;;;;5091703;28;20459;-49
2022/07/08 06:23:20;;;;;;;7.97;3.47;;;17.60;99.90;;;;;;5073746;28;20465;-49
2022/07/08 06:25:46;;;;;;;10.83;3.50;;;17.60;99.90;;;;;;5091408;28;20430;-49
2022/07/08 06:28:14;;;;;;;14.17;4.43;;;17.70;99.90;;;;;;5091327;28;20466;-49
2022/07/08 06:30:42;;;;;;;7.07;3.27;;;17.60;99.90;;;;;;5091460;28;20430;-49
2022/07/08 06:33:09;;;;;;;12.60;4.37;;;17.70;99.90;;;;;;5091567;28;20485;-49
2022/07/08 06:35:36;;;;;;;11.33;3.30;;;17.50;99.90;;;;;;5073097;28;20451;-50
2022/07/08 06:40:33;;;;;;;12.00;3.43;;;17.60;99.90;;;;;;5009232;28;20780;-48
2022/07/08 06:42:59;;;;;;;10.60;4.00;;;17.50;99.90;;;;;;5011160;28;21030;-51
2022/07/08 06:45:26;;;;;;;11.43;3.37;;;17.50;99.90;;;;;;5010725;28;20473;-49
2022/07/08 06:47:54;;;;;;;10.10;4.00;;;17.60;99.90;;;;;;5042690;28;20455;-50
2022/07/08 06:50:20;;;;;;;11.53;3.50;;;17.60;99.90;;;;;;5010312;28;20759;-49
2022/07/08 06:52:47;;;;;;;12.47;4.33;;;17.50;99.90;;;;;;5011035;28;20501;-48
2022/07/08 06:55:14;;;;;;;9.53;3.00;;;17.40;99.90;;;;;;5011049;28;20433;-49
2022/07/08 06:57:41;;;;;;;11.27;4.17;;;17.80;99.90;;;;;;5010622;28;20489;-49
2022/07/08 07:00:44;;;;;;;10.90;3.60;;;17.40;99.90;;;;;;5010166;28;20557;-48
2022/07/08 07:03:12;;;;;;;13.90;3.17;;;17.80;99.90;;;;;;5010594;28;20446;-49
2022/07/08 07:05:39;;;;;;;9.53;2.80;;;17.60;99.90;;;;;;5010787;28;20852;-48
2022/07/08 07:08:05;;;;;;;6.53;2.80;;;17.60;99.90;;;;;;5010768;28;20448;-49
2022/07/08 07:10:32;;;;;;;13.63;3.60;;;17.50;99.90;;;;;;5009103;28;20450;-50
2022/07/08 07:12:59;;;;;;;8.70;3.43;;;17.60;99.90;;;;;;5010889;28;20955;-49
2022/07/08 07:15:26;;;;;;;10.07;3.73;;;17.50;99.90;;;;;;5010873;28;20449;-49
2022/07/08 07:17:52;;;;;;;12.27;3.30;;;18.00;99.90;;;;;;5010839;28;20565;-49
2022/07/08 07:20:21;;;;;;;16.33;4.87;;;17.60;99.90;;;;;;5010233;28;20503;-50
2022/07/08 07:22:47;;;;;;;12.13;3.77;;;17.60;99.90;;;;;;5010664;28;20489;-49
2022/07/08 07:25:14;;;;;;;11.33;3.97;;;17.80;99.90;;;;;;5010575;28;20453;-49
2022/07/08 07:27:41;;;;;;;14.17;3.43;;;17.60;99.90;;;;;;5010909;28;20428;-50
2022/07/08 07:30:09;;;;;;;10.67;2.90;;;17.40;99.90;;;;;;5009778;28;20452;-50
2022/07/08 07:32:36;;;;;;;6.80;2.60;;;17.40;99.90;;;;;;5010784;28;20433;-48
2022/07/08 07:35:03;;;;;;;14.80;3.50;;;17.50;99.90;;;;;;5010628;28;20454;-49
2022/07/08 07:37:35;;;;;;;16.03;3.73;;;17.50;99.90;;;;;;5010567;28;20482;-50
2022/07/08 07:40:03;;;;;;;8.83;2.80;;;17.60;99.90;;;;;;5010098;28;20854;-50
2022/07/08 07:42:29;;;;;;;9.50;3.10;;;17.90;99.90;;;;;;5010364;28;20443;-49
2022/07/08 07:44:56;;;;;;;8.07;2.67;;;18.00;99.90;;;;;;5011000;28;20958;-50
2022/07/08 07:47:22;;;;;;;8.33;3.00;;;18.10;99.90;;;;;;5010895;28;20453;-48
2022/07/08 07:49:50;;;;;;;12.23;3.30;;;17.90;99.90;;;;;;5010770;28;20458;-50
2022/07/08 07:52:17;;;;;;;8.90;3.40;;;18.00;99.90;;;;;;5011190;28;20451;-49
2022/07/08 07:54:45;;;;;;;9.37;2.83;;;18.00;99.90;;;;;;5011101;28;20480;-48
2022/07/08 07:57:12;;;;;;;4.70;2.37;;;18.20;99.90;;;;;;5011123;28;20434;-50
2022/07/08 07:59:39;;;;;;;8.37;3.10;;;18.30;99.90;;;;;;5010272;28;20567;-51
2022/07/08 08:02:07;;;;;;;10.33;2.80;;;18.30;99.90;;;;;;5013074;28;20442;-49
2022/07/08 08:04:33;;;;;;;13.03;2.90;;;18.40;99.90;;;;;;5015053;28;20444;-49
2022/07/08 08:07:01;;;;;;;13.97;4.53;;;18.30;99.90;;;;;;5015030;28;20470;-49
2022/07/08 08:09:28;;;;;;;10.60;3.13;;;18.30;99.90;;;;;;5014024;28;20460;-49
2022/07/08 08:11:56;;;;;;;9.43;3.10;;;18.50;99.90;;;;;;5014285;28;20958;-48
2022/07/08 08:14:23;;;;;;;11.67;3.77;;;18.80;99.90;;;;;;5014501;28;20438;-48
2022/07/08 08:16:49;;;;;;;11.80;3.43;;;18.60;99.90;;;;;;5014378;28;20434;-49
2022/07/08 08:19:16;;;;;;;15.03;4.23;;;18.80;99.90;;;;;;5013974;28;20676;-49
2022/07/08 08:21:42;;;;;;;9.40;2.67;;;18.80;99.90;;;;;;5014352;28;20454;-49
2022/07/08 08:24:09;;;;;;;10.97;3.73;;;19.00;99.90;;;;;;5014113;28;20439;-48
2022/07/08 08:26:36;;;;;;;14.60;4.70;;;19.00;99.90;;;;;;5012893;28;20454;-49
2022/07/08 08:29:04;;;;;;;16.03;2.73;;;19.10;99.70;;;;;;5012899;28;20869;-51
2022/07/08 08:31:30;;;;;;;14.00;3.60;;;19.30;99.40;;;;;;5013917;28;20443;-50
2022/07/08 08:33:57;;;;;;;10.00;2.60;;;19.20;99.00;;;;;;5013473;28;20443;-50
2022/07/08 08:36:24;;;;;;;8.70;2.70;;;19.20;98.80;;;;;;5012297;28;20454;-49
2022/07/08 08:38:51;;;;;;;9.77;2.87;;;19.20;98.50;;;;;;5012076;28;20503;-50
2022/07/08 08:41:18;;;;;;;13.37;3.17;;;19.40;98.40;;;;;;5012488;28;20828;-51
2022/07/08 08:43:45;;;;;;;8.73;3.30;;;19.30;98.30;;;;;;5013660;28;20962;-49
2022/07/08 08:46:13;;;;;;;11.90;3.03;;;19.60;98.10;;;;;;5013295;28;20439;-50
2022/07/08 08:48:40;;;;;;;7.00;2.70;;;19.40;97.80;;;;;;5012976;28;20462;-49
2022/07/08 08:51:08;;;;;;;7.00;2.77;;;19.30;97.60;;;;;;5013528;28;20935;-49
2022/07/08 08:53:40;;;;;;;11.23;3.10;;;19.30;97.70;;;;;;5013429;28;20443;-50
2022/07/08 08:56:10;;;;;;;8.17;3.07;;;19.30;97.50;;;;;;5013404;28;20440;-49
2022/07/08 08:58:38;;;;;;;12.00;2.80;;;19.30;97.60;;;;;;5012556;28;21031;-50
2022/07/08 09:01:07;;;;;;;14.23;3.10;;;19.20;97.30;;;;;;5013421;28;20493;-49
2022/07/08 09:03:35;;;;;;;9.57;2.90;;;19.20;97.50;;;;;;5012923;28;20941;-49
2022/07/08 09:06:02;;;;;;;12.23;3.27;;;19.10;97.30;;;;;;5013057;28;20463;-49
2022/07/08 09:08:29;;;;;;;9.40;3.47;;;19.00;97.20;;;;;;5012282;28;20464;-50
2022/07/08 09:10:55;;;;;;;6.67;2.00;;;18.60;97.10;;;;;;5013036;28;20446;-50
2022/07/08 09:13:25;;;;;;;9.53;2.27;;;18.70;97.20;;;;;;5011435;28;20452;-49
2022/07/08 09:15:54;;;;;;;16.83;3.37;;;19.00;97.00;;;;;;5013262;28;20428;-49
2022/07/08 09:18:23;;;;;;;9.20;2.30;;;18.90;96.90;;;;;;5012337;28;20491;-49
2022/07/08 09:20:52;;;;;;;5.97;2.37;;;18.50;96.70;;;;;;5012572;28;20435;-50
2022/07/08 09:23:21;;;;;;;11.60;3.10;;;19.00;97.10;;;;;;5012478;28;20443;-50
2022/07/08 09:25:49;;;;;;;9.03;2.40;;;19.00;97.00;;;;;;5012345;28;20440;-50
2022/07/08 09:28:16;;;;;;;8.23;2.90;;;19.20;97.20;;;;;;5012090;28;20460;-49
2022/07/08 09:30:46;;;;;;;6.93;2.63;;;19.00;96.50;;;;;;5011984;28;20555;-48
2022/07/08 09:33:13;;;;;;;9.30;2.80;;;19.20;96.50;;;;;;5011789;28;20440;-49
2022/07/08 09:35:43;;;;;;;8.10;2.80;;;19.20;96.50;;;;;;5012588;28;20446;-50
2022/07/08 09:38:11;;;;;;;8.43;3.00;;;19.20;96.50;;;;;;5011880;28;20522;-49
2022/07/08 09:40:38;;;;;;;9.23;2.67;;;18.90;96.20;;;;;;5011903;28;20528;-50
2022/07/08 09:43:13;;;;;;;6.67;2.37;;;19.50;96.30;;;;;;5012263;28;20443;-51
2022/07/08 09:45:40;;;;;;;7.13;2.40;;;19.40;95.80;;;;;;5012465;28;20758;-50
2022/07/08 09:48:08;;;;;;;9.30;2.97;;;19.40;95.60;;;;;;5010504;28;20459;-49
2022/07/08 09:50:37;;;;;;;3.70;1.97;;;19.20;95.50;;;;;;5011909;28;21011;-49
2022/07/08 09:53:16;;;;;;;7.07;2.20;;;19.50;95.70;;;;;;5012392;28;20443;-49
2022/07/08 09:55:44;;;;;;;11.43;3.20;;;19.60;95.40;;;;;;5012293;28;20440;-50
2022/07/08 09:58:14;;;;;;;9.47;2.93;;;19.70;95.60;;;;;;5012136;28;20599;-49
2022/07/08 10:00:42;;;;;;;10.73;3.23;;;19.60;95.20;;;;;;5011775;28;20955;-49
2022/07/08 10:03:10;;;;;;;7.97;2.67;;;19.80;95.40;;;;;;5011771;28;20456;-50
2022/07/08 10:05:37;;;;;;;6.70;2.37;;;20.00;95.10;;;;;;5011916;28;20483;-50
2022/07/08 10:08:03;;;;;;;10.63;2.67;;;19.50;94.90;;;;;;5012028;28;20444;-50
2022/07/08 10:10:32;;;;;;;7.73;2.30;;;19.40;94.80;;;;;;5011656;28;20432;-50
2022/07/08 10:13:00;;;;;;;9.10;2.37;;;20.00;95.10;;;;;;5011858;28;20846;-51
2022/07/08 10:15:28;;;;;;;10.67;2.70;;;20.00;94.90;;;;;;5011768;28;20439;-50
2022/07/08 10:18:00;;;;;;;7.47;2.67;;;20.40;94.90;;;;;;5011410;28;20793;-50
2022/07/08 10:20:31;;;;;;;10.40;2.43;;;20.40;94.40;;;;;;5011040;28;20436;-50
2022/07/08 10:23:01;;;;;;;11.13;2.17;;;20.60;94.10;;;;;;5012042;28;20980;-49
2022/07/08 10:25:28;;;;;;;11.73;2.90;;;20.70;93.70;;;;;;5011535;28;20421;-50
2022/07/08 10:28:06;;;;;;;9.03;2.60;;;20.90;93.70;;;;;;5011625;28;20456;-52
2022/07/08 10:30:46;;;;;;;11.07;2.50;;;21.10;93.40;;;;;;4990964;28;20441;-51
2022/07/08 10:33:17;;;;;;;7.93;2.30;;;21.20;92.90;;;;;;4991926;28;20426;-49
2022/07/08 10:36:02;;;;;;;9.70;2.20;;;21.20;92.40;;;;;;5006548;28;20450;-50
2022/07/08 10:38:31;;;;;;;8.60;2.50;;;21.10;92.10;;;;;;5011026;28;20803;-50
2022/07/08 10:41:02;;;;;;;7.77;2.07;;;21.20;92.50;;;;;;5011362;28;20497;-51
2022/07/08 10:43:31;;;;;;;6.87;2.20;;;21.40;92.40;;;;;;5011090;28;20443;-50
2022/07/08 10:46:12;;;;;;;6.03;2.43;;;21.40;92.50;;;;;;5011486;28;20458;-50
2022/07/08 10:48:48;;;;;;;7.63;2.27;;;21.40;91.90;;;;;;5010854;28;20523;-50
2022/07/08 10:51:56;;;;;;;7.60;2.30;;;21.40;91.60;;;;;;5011436;28;20443;-50
2022/07/08 10:54:28;;;;;;;11.97;2.53;;;21.40;91.20;;;;;;5009443;28;20447;-50
2022/07/08 10:56:56;;;;;;;15.73;2.60;;;21.60;91.10;;;;;;5011237;28;20811;-50
2022/07/08 10:59:26;;;;;;;9.00;2.20;;;21.50;90.60;;;;;;5010470;28;20576;-51
2022/07/08 11:01:55;;;;;;;8.63;2.70;;;21.60;90.70;;;;;;5011472;28;20519;-50
2022/07/08 11:04:26;;;;;;;6.07;2.00;;;21.90;90.50;;;;;;5011216;28;20441;-50
2022/07/08 11:06:55;;;;;;;7.20;2.00;;;21.80;90.00;;;;;;5010671;28;20442;-50
2022/07/08 11:09:23;;;;;;;9.67;2.33;;;21.80;89.60;;;;;;5010553;28;20459;-49
2022/07/08 11:11:50;;;;;;;5.33;1.97;;;21.70;88.80;;;;;;5011039;28;20461;-49
2022/07/08 11:14:17;;;;;;;7.30;3.23;;;21.70;88.20;;;;;;5008404;28;20918;-50
2022/07/08 11:16:45;;;;;;;6.90;2.10;;;21.80;88.20;;;;;;5007879;28;20454;-50
2022/07/08 11:19:12;;;;;;;7.97;2.13;;;21.70;86.60;;;;;;5010424;28;20490;-50
2022/07/08 11:21:39;;;;;;;8.20;2.30;;;21.80;87.50;;;;;;5010915;28;20457;-50
2022/07/08 11:24:06;;;;;;;10.10;2.33;;;21.70;88.00;;;;;;5010633;28;20940;-51
2022/07/08 11:26:33;;;;;;;6.87;1.90;;;21.70;87.50;;;;;;5003135;28;20453;-51
2022/07/08 11:29:00;;;;;;;3.93;1.60;;;21.70;87.30;;;;;;5010295;28;20463;-52
2022/07/08 11:31:27;;;;;;;6.63;2.27;;;21.70;87.30;;;;;;5010625;28;20441;-50
2022/07/08 11:33:55;;;;;;;9.13;3.10;;;21.70;87.50;;;;;;5010794;28;20444;-49
2022/07/08 11:36:22;;;;;;;8.77;2.00;;;22.10;87.50;;;;;;5011977;28;21010;-50
2022/07/08 11:38:50;;;;;;;9.17;2.70;;;21.90;86.00;;;;;;5014099;28;20490;-50
2022/07/08 11:41:20;;;;;;;10.43;2.13;;;21.80;85.40;;;;;;5015143;28;20921;-51
2022/07/08 11:43:48;;;;;;;8.13;2.63;;;21.70;84.30;;;;;;5014579;28;20527;-49
2022/07/08 11:46:17;;;;;;;9.20;2.43;;;21.60;84.40;;;;;;5014877;28;20824;-51
2022/07/08 11:48:43;;;;;;;10.03;2.13;;;21.70;83.90;;;;;;5014031;28;20827;-51
2022/07/08 11:51:14;;;;;;;3.60;1.97;;;21.80;84.20;;;;;;5014390;28;20518;-51
2022/07/08 11:53:41;;;;;;;5.67;1.33;;;22.00;83.70;;;;;;5014950;28;20474;-50
2022/07/08 11:56:08;;;;;;;9.13;2.57;;;22.00;83.80;;;;;;5015082;28;20443;-50
2022/07/08 11:58:35;;;;;;;4.83;1.90;;;22.10;83.10;;;;;;5012831;28;20493;-51
2022/07/08 12:01:02;;;;;;;3.70;1.77;;;22.20;82.70;;;;;;5014602;28;20436;-51
2022/07/08 12:03:29;;;;;;;4.80;1.77;;;22.20;81.80;;;;;;5014494;28;20451;-50
2022/07/08 12:05:55;;;;;;;12.33;2.20;;;22.30;81.60;;;;;;5013620;28;20444;-50
2022/07/08 12:08:23;;;;;;;6.13;1.80;;;22.50;80.90;;;;;;5014125;28;20465;-49
2022/07/08 12:10:50;;;;;;;5.67;2.30;;;21.90;80.40;;;;;;5014166;28;20845;-50
2022/07/08 12:13:16;;;;;;;3.00;1.50;;;21.80;80.60;;;;;;5012735;28;20502;-52
2022/07/08 12:15:43;;;;;;;5.70;1.40;;;22.30;80.90;;;;;;5009337;28;20548;-51
2022/07/08 12:18:10;;;;;;;8.53;2.53;;;22.20;79.60;;;;;;4995046;28;20996;-50
2022/07/08 12:20:38;;;;;;;6.73;1.70;;;22.20;80.00;;;;;;4994186;28;20480;-50
2022/07/08 12:23:05;;;;;;;5.57;1.80;;;22.20;80.20;;;;;;4994361;28;20433;-51
2022/07/08 12:25:48;;;;;;;7.27;2.07;;;22.30;80.40;;;;;;4994747;28;20475;-50
2022/07/08 12:28:20;;;;;;;7.27;2.23;;;22.50;79.70;;;;;;4993999;28;20445;-51
2022/07/08 12:30:47;;;;;;;9.50;2.60;;;22.90;80.70;;;;;;4993878;28;20579;-50
2022/07/08 12:33:13;;;;;;;6.53;1.73;;;22.80;79.80;;;;;;4994680;28;20492;-50
2022/07/08 12:35:40;;;;;;;6.43;1.90;;;22.90;78.30;;;;;;5003272;28;20452;-50
2022/07/08 12:38:08;;;;;;;6.47;1.27;;;23.00;78.40;;;;;;5012908;28;20438;-50
2022/07/08 12:40:39;;;;;;;6.73;1.70;;;23.00;77.10;;;;;;5062368;22;20958;-51
2022/07/08 12:43:08;;;;;;;6.07;2.10;;;23.00;77.40;;;;;;5052783;28;20459;-50
2022/07/08 12:45:38;;;;;;;2.43;1.63;;;23.00;77.30;;;;;;5052536;28;20472;-50
2022/07/08 12:48:05;;;;;;;5.73;1.53;;;23.10;77.00;;;;;;5052708;28;20802;-50
2022/07/08 12:50:33;;;;;;;6.60;1.60;;;23.20;77.40;;;;;;5052378;28;20491;-50